createdAt,value
2018-01-19T00:00:22.820Z,993.86
2018-01-19T00:01:22.842Z,993.89
2018-01-19T00:02:22.855Z,993.87
2018-01-19T00:03:22.863Z,993.86
2018-01-19T00:04:22.883Z,993.9
2018-01-19T00:05:22.893Z,993.91
2018-01-19T00:06:22.905Z,993.91
2018-01-19T00:07:22.920Z,993.94
2018-01-19T00:08:22.941Z,993.96
2018-01-19T00:09:22.956Z,994.01
2018-01-19T00:10:23.069Z,994.05
2018-01-19T00:11:22.978Z,994.1
2018-01-19T00:12:23.093Z,994.06
2018-01-19T00:14:23.026Z,994.04
2018-01-19T00:15:23.034Z,994.09
2018-01-19T00:16:23.056Z,994.02
2018-01-19T00:17:23.062Z,994.06
2018-01-19T00:18:23.085Z,994.09
2018-01-19T00:19:23.097Z,994.05
2018-01-19T00:20:23.106Z,994.13
2018-01-19T00:21:23.120Z,994.08
2018-01-19T00:22:23.141Z,994.14
2018-01-19T00:23:23.155Z,994.16
2018-01-19T00:24:23.162Z,994.12
2018-01-19T00:25:23.176Z,994.13
2018-01-19T00:26:23.190Z,994.1
2018-01-19T00:27:23.205Z,994.14
2018-01-19T00:28:23.226Z,994.17
2018-01-19T00:30:23.248Z,994.2
2018-01-19T00:31:23.272Z,994.23
2018-01-19T00:32:23.276Z,994.29
2018-01-19T00:33:23.290Z,994.32
2018-01-19T00:34:23.311Z,994.32
2018-01-19T00:35:23.318Z,994.33
2018-01-19T00:36:23.340Z,994.37
2018-01-19T00:37:23.355Z,994.43
2018-01-19T00:38:23.370Z,994.39
2018-01-19T00:39:23.376Z,994.4
2018-01-19T00:40:23.390Z,994.42
2018-01-19T00:41:23.404Z,994.43
2018-01-19T00:42:23.427Z,994.48
2018-01-19T00:43:23.441Z,994.47
2018-01-19T00:45:23.463Z,994.48
2018-01-19T00:46:23.478Z,994.47
2018-01-19T00:47:23.498Z,994.49
2018-01-19T00:48:23.514Z,994.49
2018-01-19T00:49:23.521Z,994.54
2018-01-19T00:50:23.537Z,994.53
2018-01-19T00:51:23.549Z,994.56
2018-01-19T00:52:23.564Z,994.54
2018-01-19T00:53:23.578Z,994.49
2018-01-19T00:54:23.593Z,994.54
2018-01-19T00:55:23.610Z,994.53
2018-01-19T00:56:23.628Z,994.53
2018-01-19T00:57:23.635Z,994.58
2018-01-19T00:58:23.657Z,994.51
2018-01-19T00:59:23.665Z,994.61
2018-01-19T01:00:23.679Z,994.58
2018-01-19T01:01:23.700Z,994.66
2018-01-19T01:02:23.713Z,994.67
2018-01-19T01:03:23.721Z,994.7
2018-01-19T01:04:23.735Z,994.69
2018-01-19T01:05:23.750Z,994.68
2018-01-19T01:06:23.772Z,994.76
2018-01-19T01:07:23.785Z,994.74
2018-01-19T01:08:23.793Z,994.82
2018-01-19T01:09:23.808Z,994.76
2018-01-19T01:10:23.823Z,994.81
2018-01-19T01:11:23.843Z,994.86
2018-01-19T01:12:23.858Z,994.88
2018-01-19T01:13:23.866Z,994.87
2018-01-19T01:14:23.886Z,994.88
2018-01-19T01:15:23.893Z,994.92
2018-01-19T01:17:23.922Z,994.94
2018-01-19T01:18:23.944Z,994.92
2018-01-19T01:19:23.954Z,994.96
2018-01-19T01:20:23.972Z,994.98
2018-01-19T01:21:23.981Z,994.98
2018-01-19T01:22:23.995Z,994.93
2018-01-19T01:23:24.010Z,994.99
2018-01-19T01:24:24.024Z,994.96
2018-01-19T01:25:24.039Z,995.05
2018-01-19T01:26:24.053Z,995.02
2018-01-19T01:27:24.067Z,995.1
2018-01-19T01:28:24.088Z,995
2018-01-19T01:29:24.095Z,995.05
2018-01-19T01:30:24.116Z,995.04
2018-01-19T01:31:24.123Z,995.05
2018-01-19T01:33:24.164Z,995.04
2018-01-19T01:34:24.166Z,995.1
2018-01-19T01:35:24.181Z,995.14
2018-01-19T01:36:24.196Z,995.16
2018-01-19T01:37:24.216Z,995.13
2018-01-19T01:38:24.230Z,995.15
2018-01-19T01:39:24.277Z,995.13
2018-01-19T01:40:24.260Z,995.13
2018-01-19T01:41:24.266Z,995.18
2018-01-19T01:42:24.281Z,995.14
2018-01-19T01:43:24.295Z,995.14
2018-01-19T01:44:24.310Z,995.14
2018-01-19T01:45:24.331Z,995.14
2018-01-19T01:46:24.338Z,995.23
2018-01-19T01:47:24.359Z,995.17
2018-01-19T01:49:24.388Z,995.19
2018-01-19T01:50:24.409Z,995.16
2018-01-19T01:51:24.418Z,995.2
2018-01-19T01:52:24.425Z,995.26
2018-01-19T01:53:24.440Z,995.24
2018-01-19T01:54:24.462Z,995.22
2018-01-19T01:55:24.478Z,995.2
2018-01-19T01:56:24.482Z,995.28
2018-01-19T01:57:24.497Z,995.28
2018-01-19T01:58:24.518Z,995.32
2018-01-19T01:59:24.535Z,995.33
2018-01-19T02:00:24.540Z,995.34
2018-01-19T02:01:24.555Z,995.36
2018-01-19T02:02:24.576Z,995.37
2018-01-19T02:03:24.590Z,995.38
2018-01-19T02:05:24.619Z,995.45
2018-01-19T02:06:24.626Z,995.42
2018-01-19T02:07:24.640Z,995.45
2018-01-19T02:08:24.654Z,995.43
2018-01-19T02:09:24.676Z,995.42
2018-01-19T02:10:24.682Z,995.46
2018-01-19T02:11:24.704Z,995.47
2018-01-19T02:12:24.719Z,995.47
2018-01-19T02:13:24.726Z,995.5
2018-01-19T02:14:24.740Z,995.48
2018-01-19T02:15:24.754Z,995.5
2018-01-19T02:16:24.769Z,995.48
2018-01-19T02:17:24.784Z,995.51
2018-01-19T02:18:24.900Z,995.51
2018-01-19T02:20:24.834Z,995.49
2018-01-19T02:21:24.848Z,995.53
2018-01-19T02:22:24.856Z,995.54
2018-01-19T02:23:24.872Z,995.53
2018-01-19T02:24:24.910Z,995.48
2018-01-19T02:25:24.901Z,995.51
2018-01-19T02:26:24.919Z,995.51
2018-01-19T02:27:24.927Z,995.56
2018-01-19T02:28:24.947Z,995.55
2018-01-19T02:29:24.963Z,995.53
2018-01-19T02:30:24.973Z,995.5
2018-01-19T02:31:24.985Z,995.54
2018-01-19T02:32:24.999Z,995.57
2018-01-19T02:33:25.013Z,995.58
2018-01-19T02:34:25.030Z,995.59
2018-01-19T02:35:25.043Z,995.58
2018-01-19T02:36:25.055Z,995.57
2018-01-19T02:37:25.071Z,995.62
2018-01-19T02:38:25.084Z,995.61
2018-01-19T02:39:25.102Z,995.65
2018-01-19T02:40:25.120Z,995.66
2018-01-19T02:41:25.128Z,995.67
2018-01-19T02:42:25.143Z,995.66
2018-01-19T02:43:25.156Z,995.69
2018-01-19T02:44:25.170Z,995.68
2018-01-19T02:45:25.191Z,995.65
2018-01-19T02:46:25.202Z,995.68
2018-01-19T02:47:25.219Z,995.71
2018-01-19T02:48:25.228Z,995.68
2018-01-19T02:49:25.242Z,995.72
2018-01-19T02:50:25.255Z,995.69
2018-01-19T02:52:25.285Z,995.71
2018-01-19T02:53:25.307Z,995.74
2018-01-19T02:54:25.312Z,995.77
2018-01-19T02:55:25.327Z,995.76
2018-01-19T02:56:25.351Z,995.81
2018-01-19T02:57:25.356Z,995.83
2018-01-19T02:58:25.377Z,995.84
2018-01-19T02:59:25.391Z,995.78
2018-01-19T03:00:25.406Z,995.8
2018-01-19T03:01:25.420Z,995.83
2018-01-19T03:02:25.438Z,995.83
2018-01-19T03:03:25.448Z,995.82
2018-01-19T03:04:25.463Z,995.81
2018-01-19T03:05:25.471Z,995.77
2018-01-19T03:06:25.485Z,995.83
2018-01-19T03:08:25.520Z,995.84
2018-01-19T03:09:25.535Z,995.84
2018-01-19T03:10:25.543Z,995.83
2018-01-19T03:11:25.564Z,995.81
2018-01-19T03:12:25.571Z,995.83
2018-01-19T03:13:25.593Z,995.82
2018-01-19T03:14:25.606Z,995.85
2018-01-19T03:15:25.615Z,995.85
2018-01-19T03:16:25.636Z,995.85
2018-01-19T03:17:25.650Z,995.85
2018-01-19T03:18:25.657Z,995.86
2018-01-19T03:19:25.679Z,995.83
2018-01-19T03:20:25.686Z,995.89
2018-01-19T03:21:25.701Z,995.89
2018-01-19T03:22:25.721Z,995.92
2018-01-19T03:24:25.750Z,995.95
2018-01-19T03:25:25.762Z,995.98
2018-01-19T03:26:25.779Z,995.94
2018-01-19T03:27:25.787Z,995.98
2018-01-19T03:28:25.802Z,995.94
2018-01-19T03:29:25.825Z,996.01
2018-01-19T03:30:25.838Z,996
2018-01-19T03:31:25.847Z,996.01
2018-01-19T03:32:25.860Z,995.96
2018-01-19T03:33:25.880Z,996
2018-01-19T03:34:25.889Z,996.02
2018-01-19T03:35:25.914Z,995.98
2018-01-19T03:36:25.918Z,996.04
2018-01-19T03:37:25.938Z,996.05
2018-01-19T03:38:25.946Z,996.09
2018-01-19T03:40:25.981Z,996.07
2018-01-19T03:41:25.990Z,996.1
2018-01-19T03:42:26.004Z,996.07
2018-01-19T03:43:26.020Z,996.11
2018-01-19T03:44:26.040Z,996.11
2018-01-19T03:45:26.154Z,996.17
2018-01-19T03:46:26.062Z,996.1
2018-01-19T03:47:26.077Z,996.18
2018-01-19T03:48:26.091Z,996.18
2018-01-19T03:49:26.106Z,996.16
2018-01-19T03:50:26.120Z,996.23
2018-01-19T03:51:26.142Z,996.22
2018-01-19T03:52:26.157Z,996.19
2018-01-19T03:53:26.166Z,996.22
2018-01-19T03:55:26.195Z,996.25
2018-01-19T03:56:26.208Z,996.29
2018-01-19T03:57:26.222Z,996.29
2018-01-19T03:58:26.244Z,996.32
2018-01-19T03:59:26.263Z,996.34
2018-01-19T04:00:26.366Z,996.31
2018-01-19T04:01:26.281Z,996.36
2018-01-19T04:02:26.302Z,996.35
2018-01-19T04:03:26.310Z,996.37
2018-01-19T04:04:26.330Z,996.35
2018-01-19T04:05:26.345Z,996.35
2018-01-19T04:06:26.360Z,996.36
2018-01-19T04:07:26.374Z,996.39
2018-01-19T04:08:26.389Z,996.38
2018-01-19T04:09:26.398Z,996.39
2018-01-19T04:10:26.412Z,996.38
2018-01-19T04:11:26.426Z,996.42
2018-01-19T04:12:26.448Z,996.45
2018-01-19T04:13:26.456Z,996.44
2018-01-19T04:14:26.470Z,996.48
2018-01-19T04:15:26.486Z,996.47
2018-01-19T04:16:26.499Z,996.44
2018-01-19T04:17:26.515Z,996.47
2018-01-19T04:18:26.530Z,996.46
2018-01-19T04:19:26.544Z,996.51
2018-01-19T04:20:26.564Z,996.47
2018-01-19T04:21:26.586Z,996.48
2018-01-19T04:22:26.585Z,996.51
2018-01-19T04:23:26.608Z,996.5
2018-01-19T04:24:26.619Z,996.56
2018-01-19T04:25:26.635Z,996.51
2018-01-19T04:27:26.660Z,996.6
2018-01-19T04:28:26.675Z,996.6
2018-01-19T04:29:26.695Z,996.65
2018-01-19T04:30:26.702Z,996.67
2018-01-19T04:31:26.725Z,996.63
2018-01-19T04:32:26.833Z,996.65
2018-01-19T04:33:26.746Z,996.68
2018-01-19T04:34:26.761Z,996.7
2018-01-19T04:35:26.782Z,996.69
2018-01-19T04:36:26.797Z,996.68
2018-01-19T04:37:26.805Z,996.69
2018-01-19T04:38:26.921Z,996.71
2018-01-19T04:39:26.834Z,996.69
2018-01-19T04:40:26.856Z,996.72
2018-01-19T04:41:26.865Z,996.7
2018-01-19T04:43:26.900Z,996.72
2018-01-19T04:44:26.913Z,996.76
2018-01-19T04:45:26.929Z,996.75
2018-01-19T04:46:26.941Z,996.72
2018-01-19T04:47:26.957Z,996.76
2018-01-19T04:48:27.072Z,996.77
2018-01-19T04:49:26.980Z,996.79
2018-01-19T04:50:27.002Z,996.77
2018-01-19T04:51:27.011Z,996.77
2018-01-19T04:52:27.024Z,996.79
2018-01-19T04:53:27.039Z,996.82
2018-01-19T04:54:27.054Z,996.8
2018-01-19T04:55:27.068Z,996.8
2018-01-19T04:56:27.083Z,996.85
2018-01-19T04:57:27.098Z,996.81
2018-01-19T04:59:27.129Z,996.87
2018-01-19T05:00:27.150Z,996.84
2018-01-19T05:01:27.156Z,996.84
2018-01-19T05:02:27.172Z,996.89
2018-01-19T05:03:27.189Z,996.88
2018-01-19T05:04:27.200Z,996.89
2018-01-19T05:05:27.215Z,996.92
2018-01-19T05:06:27.231Z,996.86
2018-01-19T05:07:27.249Z,996.87
2018-01-19T05:08:27.259Z,996.94
2018-01-19T05:09:27.273Z,996.93
2018-01-19T05:10:27.295Z,996.95
2018-01-19T05:11:27.303Z,996.99
2018-01-19T05:12:27.318Z,996.98
2018-01-19T05:13:27.333Z,996.99
2018-01-19T05:15:27.368Z,996.97
2018-01-19T05:16:27.376Z,996.95
2018-01-19T05:17:27.390Z,996.98
2018-01-19T05:18:27.507Z,996.98
2018-01-19T05:19:27.421Z,997.02
2018-01-19T05:20:27.442Z,997.04
2018-01-19T05:21:27.449Z,997.06
2018-01-19T05:22:27.464Z,997.06
2018-01-19T05:23:27.484Z,997.05
2018-01-19T05:24:27.500Z,997.07
2018-01-19T05:25:27.508Z,997.11
2018-01-19T05:26:27.523Z,997.11
2018-01-19T05:27:27.544Z,997.14
2018-01-19T05:28:27.554Z,997.12
2018-01-19T05:30:27.583Z,997.15
2018-01-19T05:31:27.604Z,997.13
2018-01-19T05:32:27.619Z,997.13
2018-01-19T05:33:27.627Z,997.12
2018-01-19T05:34:27.649Z,997.1
2018-01-19T05:35:27.662Z,997.14
2018-01-19T05:36:27.672Z,997.13
2018-01-19T05:37:27.686Z,997.12
2018-01-19T05:38:27.706Z,997.15
2018-01-19T05:39:27.714Z,997.15
2018-01-19T05:40:27.736Z,997.17
2018-01-19T05:41:27.745Z,997.15
2018-01-19T05:42:27.765Z,997.23
2018-01-19T05:43:27.773Z,997.19
2018-01-19T05:44:27.842Z,997.22
2018-01-19T05:45:27.809Z,997.24
2018-01-19T05:46:27.817Z,997.28
2018-01-19T05:47:27.832Z,997.24
2018-01-19T05:48:27.854Z,997.29
2018-01-19T05:49:27.862Z,997.28
2018-01-19T05:50:27.876Z,997.31
2018-01-19T05:51:27.891Z,997.36
2018-01-19T05:52:27.907Z,997.29
2018-01-19T05:53:27.921Z,997.36
2018-01-19T05:54:27.936Z,997.34
2018-01-19T05:55:27.957Z,997.38
2018-01-19T05:56:27.965Z,997.4
2018-01-19T05:57:27.979Z,997.35
2018-01-19T05:58:28.001Z,997.39
2018-01-19T05:59:28.016Z,997.43
2018-01-19T06:00:28.029Z,997.4
2018-01-19T06:02:28.053Z,997.44
2018-01-19T06:03:28.074Z,997.44
2018-01-19T06:04:28.082Z,997.44
2018-01-19T06:05:28.115Z,997.49
2018-01-19T06:06:28.118Z,997.49
2018-01-19T06:07:28.133Z,997.52
2018-01-19T06:08:28.146Z,997.51
2018-01-19T06:09:28.162Z,997.54
2018-01-19T06:10:28.177Z,997.54
2018-01-19T06:11:28.185Z,997.53
2018-01-19T06:12:28.199Z,997.58
2018-01-19T06:13:28.214Z,997.62
2018-01-19T06:14:28.230Z,997.63
2018-01-19T06:15:28.242Z,997.64
2018-01-19T06:16:28.257Z,997.66
2018-01-19T06:18:28.287Z,997.69
2018-01-19T06:19:28.301Z,997.72
2018-01-19T06:20:28.322Z,997.76
2018-01-19T06:21:28.331Z,997.73
2018-01-19T06:22:28.348Z,997.73
2018-01-19T06:23:28.366Z,997.75
2018-01-19T06:24:28.381Z,997.77
2018-01-19T06:25:28.396Z,997.79
2018-01-19T06:26:28.403Z,997.76
2018-01-19T06:27:28.420Z,997.77
2018-01-19T06:28:28.440Z,997.79
2018-01-19T06:29:28.555Z,997.79
2018-01-19T06:30:28.462Z,997.74
2018-01-19T06:31:28.484Z,997.8
2018-01-19T06:32:28.493Z,997.77
2018-01-19T06:34:28.520Z,997.8
2018-01-19T06:35:28.535Z,997.81
2018-01-19T06:36:28.551Z,997.82
2018-01-19T06:37:28.571Z,997.85
2018-01-19T06:38:28.579Z,997.86
2018-01-19T06:39:28.596Z,997.81
2018-01-19T06:40:28.616Z,997.94
2018-01-19T06:41:28.624Z,997.92
2018-01-19T06:42:28.637Z,997.92
2018-01-19T06:43:28.653Z,997.94
2018-01-19T06:44:28.666Z,997.99
2018-01-19T06:45:28.681Z,997.99
2018-01-19T06:46:28.695Z,998.03
2018-01-19T06:47:28.710Z,998.01
2018-01-19T06:48:28.724Z,998.06
2018-01-19T06:50:28.754Z,998.01
2018-01-19T06:51:28.876Z,998.11
2018-01-19T06:52:28.790Z,998.1
2018-01-19T06:53:28.797Z,998.14
2018-01-19T06:54:28.812Z,998.13
2018-01-19T06:55:28.826Z,998.12
2018-01-19T06:56:28.842Z,998.14
2018-01-19T06:57:28.864Z,998.17
2018-01-19T06:58:28.882Z,998.15
2018-01-19T06:59:28.892Z,998.19
2018-01-19T07:00:28.901Z,998.18
2018-01-19T07:01:28.921Z,998.18
2018-01-19T07:02:28.931Z,998.19
2018-01-19T07:03:28.944Z,998.2
2018-01-19T07:05:28.980Z,998.23
2018-01-19T07:06:28.989Z,998.21
2018-01-19T07:07:29.008Z,998.25
2018-01-19T07:08:29.017Z,998.29
2018-01-19T07:09:29.034Z,998.26
2018-01-19T07:10:29.047Z,998.24
2018-01-19T07:11:29.061Z,998.26
2018-01-19T07:12:29.142Z,998.27
2018-01-19T07:13:29.090Z,998.28
2018-01-19T07:14:29.112Z,998.28
2018-01-19T07:15:29.126Z,998.31
2018-01-19T07:16:29.135Z,998.29
2018-01-19T07:17:29.149Z,998.32
2018-01-19T07:18:29.164Z,998.32
2018-01-19T07:19:29.185Z,998.37
2018-01-19T07:20:29.192Z,998.38
2018-01-19T07:21:29.206Z,998.37
2018-01-19T07:22:29.221Z,998.37
2018-01-19T07:23:29.237Z,998.38
2018-01-19T07:24:29.250Z,998.4
2018-01-19T07:25:29.265Z,998.41
2018-01-19T07:26:29.287Z,998.38
2018-01-19T07:27:29.294Z,998.41
2018-01-19T07:28:29.314Z,998.44
2018-01-19T07:29:29.330Z,998.44
2018-01-19T07:30:29.338Z,998.46
2018-01-19T07:31:29.353Z,998.47
2018-01-19T07:32:29.368Z,998.49
2018-01-19T07:33:29.390Z,998.56
2018-01-19T07:34:29.397Z,998.56
2018-01-19T07:35:29.412Z,998.59
2018-01-19T07:37:29.441Z,998.62
2018-01-19T07:38:29.456Z,998.66
2018-01-19T07:39:29.476Z,998.7
2018-01-19T07:40:29.588Z,998.7
2018-01-19T07:41:29.499Z,998.73
2018-01-19T07:42:29.515Z,998.76
2018-01-19T07:43:29.529Z,998.75
2018-01-19T07:44:29.547Z,998.76
2018-01-19T07:45:29.559Z,998.72
2018-01-19T07:46:29.575Z,998.78
2018-01-19T07:47:29.595Z,998.77
2018-01-19T07:48:29.603Z,998.78
2018-01-19T07:49:29.624Z,998.81
2018-01-19T07:50:29.633Z,998.81
2018-01-19T07:51:29.647Z,998.82
2018-01-19T07:53:29.721Z,998.86
2018-01-19T07:54:29.691Z,998.84
2018-01-19T07:55:29.706Z,998.84
2018-01-19T07:56:29.728Z,998.83
2018-01-19T07:57:29.742Z,998.88
2018-01-19T07:58:29.757Z,998.9
2018-01-19T07:59:29.766Z,998.87
2018-01-19T08:00:29.780Z,998.94
2018-01-19T08:01:29.800Z,998.93
2018-01-19T08:02:29.809Z,998.95
2018-01-19T08:03:29.824Z,998.95
2018-01-19T08:04:29.839Z,999.01
2018-01-19T08:05:29.858Z,999.03
2018-01-19T08:06:29.868Z,999.05
2018-01-19T08:07:29.886Z,999.03
2018-01-19T08:09:29.919Z,999.04
2018-01-19T08:10:29.928Z,999.11
2018-01-19T08:11:29.944Z,999.14
2018-01-19T08:12:30.003Z,999.17
2018-01-19T08:13:29.980Z,999.21
2018-01-19T08:14:29.995Z,999.14
2018-01-19T08:15:30.011Z,999.18
2018-01-19T08:16:30.024Z,999.21
2018-01-19T08:17:30.032Z,999.2
2018-01-19T08:18:30.049Z,999.26
2018-01-19T08:19:30.069Z,999.25
2018-01-19T08:20:30.078Z,999.26
2018-01-19T08:21:30.100Z,999.3
2018-01-19T08:22:30.108Z,999.3
2018-01-19T08:23:30.122Z,999.24
2018-01-19T08:25:30.163Z,999.29
2018-01-19T08:26:30.168Z,999.3
2018-01-19T08:27:30.184Z,999.35
2018-01-19T08:28:30.199Z,999.38
2018-01-19T08:29:30.214Z,999.42
2018-01-19T08:30:30.234Z,999.43
2018-01-19T08:31:30.250Z,999.43
2018-01-19T08:32:30.258Z,999.46
2018-01-19T08:33:30.274Z,999.47
2018-01-19T08:34:30.295Z,999.49
2018-01-19T08:35:30.311Z,999.48
2018-01-19T08:36:30.320Z,999.51
2018-01-19T08:37:30.335Z,999.5
2018-01-19T08:38:30.350Z,999.51
2018-01-19T08:40:30.381Z,999.56
2018-01-19T08:41:30.396Z,999.57
2018-01-19T08:42:30.417Z,999.58
2018-01-19T08:43:30.426Z,999.61
2018-01-19T08:44:30.542Z,999.64
2018-01-19T08:45:30.463Z,999.6
2018-01-19T08:46:30.471Z,999.61
2018-01-19T08:47:30.487Z,999.62
2018-01-19T08:48:30.502Z,999.63
2018-01-19T08:49:30.524Z,999.68
2018-01-19T08:50:30.539Z,999.67
2018-01-19T08:51:30.556Z,999.68
2018-01-19T08:52:30.570Z,999.69
2018-01-19T08:53:30.578Z,999.69
2018-01-19T08:54:30.594Z,999.69
2018-01-19T08:55:30.610Z,999.67
2018-01-19T08:56:30.631Z,999.7
2018-01-19T08:57:30.640Z,999.69
2018-01-19T08:58:30.657Z,999.72
2018-01-19T08:59:30.677Z,999.74
2018-01-19T09:00:30.692Z,999.76
2018-01-19T09:01:30.701Z,999.8
2018-01-19T09:02:30.726Z,999.81
2018-01-19T09:03:30.732Z,999.86
2018-01-19T09:04:30.746Z,999.89
2018-01-19T09:05:30.762Z,999.87
2018-01-19T09:06:30.777Z,999.87
2018-01-19T09:07:30.798Z,999.95
2018-01-19T09:08:30.807Z,999.85
2018-01-19T09:09:30.823Z,999.84
2018-01-19T09:10:30.837Z,999.94
2018-01-19T09:12:30.868Z,999.98
2018-01-19T09:13:30.883Z,999.95
2018-01-19T09:14:30.897Z,999.96
2018-01-19T09:15:30.920Z,1000
2018-01-19T09:16:30.936Z,999.99
2018-01-19T09:17:30.952Z,1000.04
2018-01-19T09:18:30.963Z,1000.05
2018-01-19T09:19:30.980Z,1000.03
2018-01-19T09:20:30.989Z,1000.1
2018-01-19T09:21:31.004Z,1000.08
2018-01-19T09:22:31.021Z,1000.07
2018-01-19T09:23:31.035Z,1000.08
2018-01-19T09:24:31.051Z,1000.08
2018-01-19T09:25:31.072Z,1000.17
2018-01-19T09:26:31.082Z,1000.15
2018-01-19T09:28:31.112Z,1000.18
2018-01-19T09:29:31.127Z,1000.16
2018-01-19T09:30:31.143Z,1000.16
2018-01-19T09:31:31.164Z,1000.19
2018-01-19T09:32:31.178Z,1000.21
2018-01-19T09:33:31.194Z,1000.24
2018-01-19T09:34:31.209Z,1000.23
2018-01-19T09:35:31.226Z,1000.27
2018-01-19T09:36:31.233Z,1000.32
2018-01-19T09:37:31.256Z,1000.35
2018-01-19T09:38:31.271Z,1000.38
2018-01-19T09:39:31.280Z,1000.4
2018-01-19T09:40:31.294Z,1000.4
2018-01-19T09:41:31.316Z,1000.43
2018-01-19T09:42:31.326Z,1000.45
2018-01-19T09:44:31.376Z,1000.44
2018-01-19T09:45:31.383Z,1000.48
2018-01-19T09:46:31.387Z,1000.48
2018-01-19T09:47:31.402Z,1000.5
2018-01-19T09:48:31.421Z,1000.52
2018-01-19T09:49:31.433Z,1000.49
2018-01-19T09:50:31.479Z,1000.52
2018-01-19T09:51:31.468Z,1000.52
2018-01-19T09:52:31.487Z,1000.56
2018-01-19T09:53:31.494Z,1000.54
2018-01-19T09:54:31.508Z,1000.54
2018-01-19T09:55:31.524Z,1000.56
2018-01-19T09:56:31.547Z,1000.58
2018-01-19T09:57:31.555Z,1000.61
2018-01-19T09:58:31.569Z,1000.62
2018-01-19T10:00:31.608Z,1000.55
2018-01-19T10:01:31.617Z,1000.54
2018-01-19T10:02:31.632Z,1000.64
2018-01-19T10:03:31.654Z,1000.57
2018-01-19T10:04:31.663Z,1000.6
2018-01-19T10:05:31.680Z,1000.62
2018-01-19T10:06:31.700Z,1000.58
2018-01-19T10:07:31.720Z,1000.59
2018-01-19T10:08:31.724Z,1000.54
2018-01-19T10:09:31.740Z,1000.61
2018-01-19T10:10:31.756Z,1000.57
2018-01-19T10:11:31.778Z,1000.54
2018-01-19T10:12:31.788Z,1000.58
2018-01-19T10:13:31.836Z,1000.56
2018-01-19T10:15:31.838Z,1000.58
2018-01-19T10:16:31.857Z,1000.61
2018-01-19T10:17:31.866Z,1000.64
2018-01-19T10:18:31.881Z,1000.63
2018-01-19T10:19:31.897Z,1000.68
2018-01-19T10:20:31.912Z,1000.67
2018-01-19T10:21:31.927Z,1000.68
2018-01-19T10:22:31.949Z,1000.68
2018-01-19T10:23:31.958Z,1000.64
2018-01-19T10:24:31.975Z,1000.63
2018-01-19T10:25:31.997Z,1000.64
2018-01-19T10:26:32.013Z,1000.69
2018-01-19T10:27:32.022Z,1000.73
2018-01-19T10:28:32.045Z,1000.69
2018-01-19T10:29:32.061Z,1000.73
2018-01-19T10:30:32.070Z,1000.75
2018-01-19T10:31:32.185Z,1000.79
2018-01-19T10:32:32.102Z,1000.8
2018-01-19T10:33:32.219Z,1000.82
2018-01-19T10:34:32.133Z,1000.83
2018-01-19T10:35:32.149Z,1000.83
2018-01-19T10:36:32.172Z,1000.83
2018-01-19T10:37:32.186Z,1000.82
2018-01-19T10:38:32.196Z,1000.81
2018-01-19T10:39:32.218Z,1000.83
2018-01-19T10:40:32.236Z,1000.85
2018-01-19T10:41:32.251Z,1000.84
2018-01-19T10:42:32.259Z,1000.84
2018-01-19T10:43:32.283Z,1000.87
2018-01-19T10:44:32.293Z,1000.9
2018-01-19T10:45:32.308Z,1000.9
2018-01-19T10:47:32.349Z,1000.9
2018-01-19T10:48:32.361Z,1000.94
2018-01-19T10:49:32.378Z,1000.94
2018-01-19T10:50:32.394Z,1000.93
2018-01-19T10:51:32.402Z,1000.91
2018-01-19T10:52:32.419Z,1000.89
2018-01-19T10:53:32.438Z,1000.93
2018-01-19T10:54:32.457Z,1000.92
2018-01-19T10:55:32.467Z,1000.91
2018-01-19T10:56:32.487Z,1000.87
2018-01-19T10:57:32.498Z,1000.87
2018-01-19T10:58:32.520Z,1000.87
2018-01-19T10:59:32.536Z,1000.84
2018-01-19T11:00:32.551Z,1000.85
2018-01-19T11:01:32.561Z,1000.84
2018-01-19T11:03:32.591Z,1000.85
2018-01-19T11:04:32.608Z,1000.86
2018-01-19T11:05:32.624Z,1000.87
2018-01-19T11:06:32.639Z,1000.9
2018-01-19T11:07:32.654Z,1000.94
2018-01-19T11:08:32.683Z,1000.94
2018-01-19T11:09:32.789Z,1000.9
2018-01-19T11:10:32.709Z,1000.96
2018-01-19T11:11:32.724Z,1000.95
2018-01-19T11:12:32.739Z,1000.97
2018-01-19T11:13:32.749Z,1000.98
2018-01-19T11:14:32.766Z,1000.95
2018-01-19T11:15:32.789Z,1000.92
2018-01-19T11:16:32.803Z,1000.95
2018-01-19T11:17:32.819Z,1000.93
2018-01-19T11:19:32.845Z,1000.93
2018-01-19T11:20:32.861Z,1000.85
2018-01-19T11:21:32.882Z,1000.87
2018-01-19T11:22:32.892Z,1000.81
2018-01-19T11:23:32.910Z,1000.82
2018-01-19T11:24:32.925Z,1000.77
2018-01-19T11:25:32.941Z,1000.8
2018-01-19T11:26:32.956Z,1000.83
2018-01-19T11:27:32.973Z,1000.86
2018-01-19T11:28:32.996Z,1000.85
2018-01-19T11:29:33.004Z,1000.82
2018-01-19T11:30:33.021Z,1000.85
2018-01-19T11:31:33.038Z,1000.84
2018-01-19T11:32:33.053Z,1000.83
2018-01-19T11:33:33.076Z,1000.85
2018-01-19T11:35:33.101Z,1000.91
2018-01-19T11:36:33.125Z,1000.9
2018-01-19T11:37:33.133Z,1000.86
2018-01-19T11:38:33.149Z,1000.86
2018-01-19T11:39:33.173Z,1000.87
2018-01-19T11:40:33.181Z,1000.87
2018-01-19T11:41:33.199Z,1000.89
2018-01-19T11:42:33.214Z,1000.86
2018-01-19T11:43:33.230Z,1000.86
2018-01-19T11:44:33.247Z,1000.86
2018-01-19T11:45:33.264Z,1000.94
2018-01-19T11:46:33.280Z,1000.93
2018-01-19T11:47:33.301Z,1000.95
2018-01-19T11:48:33.319Z,1000.93
2018-01-19T11:50:33.345Z,1001
2018-01-19T11:51:33.360Z,1000.98
2018-01-19T11:52:33.377Z,1000.98
2018-01-19T11:53:33.393Z,1001
2018-01-19T11:54:33.409Z,1001.01
2018-01-19T11:55:33.436Z,1001.06
2018-01-19T11:56:33.449Z,1001.02
2018-01-19T11:57:33.464Z,1001.01
2018-01-19T11:58:33.473Z,1001.03
2018-01-19T11:59:33.491Z,1001.01
2018-01-19T12:00:33.509Z,1001.05
2018-01-19T12:01:33.523Z,1001.04
2018-01-19T12:02:33.538Z,1001.08
2018-01-19T12:03:33.562Z,1001.05
2018-01-19T12:04:33.573Z,1001.07
2018-01-19T12:05:33.594Z,1001.12
2018-01-19T12:06:33.610Z,1001.08
2018-01-19T12:07:33.620Z,1001.1
2018-01-19T12:08:33.636Z,1001.13
2018-01-19T12:09:33.658Z,1001.16
2018-01-19T12:10:33.669Z,1001.16
2018-01-19T12:11:33.684Z,1001.18
2018-01-19T12:12:33.708Z,1001.18
2018-01-19T12:13:33.716Z,1001.16
2018-01-19T12:14:33.733Z,1001.15
2018-01-19T12:15:33.756Z,1001.12
2018-01-19T12:16:33.873Z,1001.15
2018-01-19T12:17:33.781Z,1001.15
2018-01-19T12:18:33.798Z,1001.16
2018-01-19T12:19:33.814Z,1001.17
2018-01-19T12:20:33.835Z,1001.18
2018-01-19T12:22:33.863Z,1001.23
2018-01-19T12:23:33.885Z,1001.18
2018-01-19T12:24:33.994Z,1001.18
2018-01-19T12:25:33.910Z,1001.22
2018-01-19T12:26:33.934Z,1001.18
2018-01-19T12:27:34.051Z,1001.21
2018-01-19T12:28:33.960Z,1001.27
2018-01-19T12:29:33.976Z,1001.25
2018-01-19T12:30:33.993Z,1001.22
2018-01-19T12:31:34.014Z,1001.27
2018-01-19T12:32:34.024Z,1001.25
2018-01-19T12:33:34.041Z,1001.23
2018-01-19T12:34:34.058Z,1001.2
2018-01-19T12:35:34.073Z,1001.2
2018-01-19T12:36:34.090Z,1001.08
2018-01-19T12:38:34.123Z,1001.04
2018-01-19T12:39:34.144Z,1001.07
2018-01-19T12:40:34.154Z,1001.08
2018-01-19T12:41:34.171Z,1001.11
2018-01-19T12:42:34.193Z,1001.15
2018-01-19T12:43:34.203Z,1001.2
2018-01-19T12:44:34.225Z,1001.22
2018-01-19T12:45:34.245Z,1001.32
2018-01-19T12:46:34.256Z,1001.32
2018-01-19T12:47:34.268Z,1001.35
2018-01-19T12:48:34.295Z,1001.33
2018-01-19T12:49:34.300Z,1001.39
2018-01-19T12:50:34.315Z,1001.37
2018-01-19T12:51:34.339Z,1001.41
2018-01-19T12:52:34.349Z,1001.41
2018-01-19T12:54:34.382Z,1001.41
2018-01-19T12:55:34.404Z,1001.41
2018-01-19T12:56:34.414Z,1001.41
2018-01-19T12:57:34.431Z,1001.42
2018-01-19T12:58:34.453Z,1001.44
2018-01-19T12:59:34.473Z,1001.4
2018-01-19T13:00:34.484Z,1001.43
2018-01-19T13:01:34.501Z,1001.42
2018-01-19T13:02:34.511Z,1001.42
2018-01-19T13:03:34.527Z,1001.44
2018-01-19T13:04:34.542Z,1001.46
2018-01-19T13:05:34.561Z,1001.47